createdAt,value
2017-05-28T00:00:55.340Z,0
2017-05-28T00:02:03.427Z,0
2017-05-28T00:03:11.516Z,0
2017-05-28T00:04:19.606Z,0
2017-05-28T00:05:27.689Z,0
2017-05-28T00:06:35.785Z,0
2017-05-28T00:07:43.863Z,0
2017-05-28T00:08:51.950Z,0
2017-05-28T00:10:00.035Z,0
2017-05-28T00:11:08.128Z,0
2017-05-28T00:12:16.210Z,0
2017-05-28T00:13:24.304Z,0
2017-05-28T00:14:32.386Z,0
2017-05-28T00:15:40.471Z,0
2017-05-28T00:16:48.639Z,0
2017-05-28T00:17:56.644Z,0
2017-05-28T00:19:04.788Z,0
2017-05-28T00:20:12.882Z,0
2017-05-28T00:21:20.906Z,0
2017-05-28T00:22:28.993Z,0
2017-05-28T00:23:37.084Z,0
2017-05-28T00:24:45.168Z,0
2017-05-28T00:25:53.256Z,0
2017-05-28T00:27:01.340Z,0
2017-05-28T00:28:09.428Z,0
2017-05-28T00:29:17.515Z,0
2017-05-28T00:30:25.626Z,0
2017-05-28T00:31:33.714Z,0
2017-05-28T00:32:41.778Z,0
2017-05-28T00:33:49.874Z,0
2017-05-28T00:34:57.950Z,0
2017-05-28T00:36:06.035Z,0
2017-05-28T00:37:14.122Z,0
2017-05-28T00:38:22.210Z,0
2017-05-28T00:39:30.297Z,0
2017-05-28T00:40:38.386Z,0
2017-05-28T00:41:48.318Z,0
2017-05-28T00:42:54.559Z,0
2017-05-28T00:44:02.647Z,0
2017-05-28T00:45:10.731Z,0
2017-05-28T00:46:18.839Z,0
2017-05-28T00:47:26.901Z,0
2017-05-28T00:48:34.988Z,0
2017-05-28T00:49:43.076Z,0
2017-05-28T00:50:51.163Z,0
2017-05-28T00:51:59.250Z,0
2017-05-28T00:53:07.338Z,0
2017-05-28T00:54:15.428Z,0
2017-05-28T00:55:23.520Z,0
2017-05-28T00:56:31.606Z,0
2017-05-28T00:57:39.816Z,0
2017-05-28T00:58:47.779Z,0
2017-05-28T00:59:55.865Z,0
2017-05-28T01:01:03.958Z,0
2017-05-28T01:02:12.043Z,0
2017-05-28T01:03:20.130Z,0
2017-05-28T01:04:28.211Z,0
2017-05-28T01:05:36.297Z,0
2017-05-28T01:06:44.391Z,0
2017-05-28T01:07:52.470Z,0
2017-05-28T01:09:00.557Z,0
2017-05-28T01:10:08.648Z,0
2017-05-28T01:11:16.737Z,0
2017-05-28T01:12:24.821Z,0
2017-05-28T01:13:32.906Z,0
2017-05-28T01:14:40.993Z,0
2017-05-28T01:15:49.087Z,0
2017-05-28T01:16:57.170Z,0
2017-05-28T01:18:05.257Z,0
2017-05-28T01:19:13.345Z,0
2017-05-28T01:20:21.431Z,0
2017-05-28T01:21:29.519Z,0
2017-05-28T01:22:37.630Z,0
2017-05-28T01:23:45.687Z,0
2017-05-28T01:24:54.027Z,0
2017-05-28T01:26:01.863Z,0
2017-05-28T01:27:09.967Z,0
2017-05-28T01:28:18.039Z,0
2017-05-28T01:29:26.170Z,0
2017-05-28T01:30:34.208Z,0
2017-05-28T01:31:42.296Z,0
2017-05-28T01:32:50.392Z,0
2017-05-28T01:33:58.469Z,0
2017-05-28T01:35:06.576Z,0
2017-05-28T01:36:14.639Z,0
2017-05-28T01:37:22.735Z,0
2017-05-28T01:38:30.816Z,0
2017-05-28T01:39:38.916Z,0
2017-05-28T01:40:46.999Z,0
2017-05-28T01:41:55.090Z,0
2017-05-28T01:43:03.179Z,0
2017-05-28T01:44:11.264Z,0
2017-05-28T01:45:19.352Z,0
2017-05-28T01:46:27.438Z,0
2017-05-28T01:47:35.525Z,0
2017-05-28T01:48:43.612Z,0
2017-05-28T01:49:51.703Z,0
2017-05-28T01:50:59.788Z,0
2017-05-28T01:52:07.874Z,0
2017-05-28T01:53:15.960Z,0
2017-05-28T01:54:24.104Z,0
2017-05-28T01:55:32.136Z,0
2017-05-28T01:56:40.222Z,0
2017-05-28T01:57:48.309Z,0
2017-05-28T01:58:56.461Z,0
2017-05-28T02:00:04.479Z,0
2017-05-28T02:01:12.565Z,0
2017-05-28T02:02:20.651Z,0
2017-05-28T02:03:28.738Z,0
2017-05-28T02:04:36.825Z,0
2017-05-28T02:05:44.910Z,0
2017-05-28T02:06:52.996Z,0
2017-05-28T02:08:01.083Z,0
2017-05-28T02:09:09.171Z,0
2017-05-28T02:10:17.258Z,0
2017-05-28T02:11:25.344Z,0
2017-05-28T02:12:33.430Z,0
2017-05-28T02:13:41.515Z,0
2017-05-28T02:14:49.604Z,0
2017-05-28T02:15:57.697Z,0
2017-05-28T02:17:05.772Z,0
2017-05-28T02:18:13.873Z,0
2017-05-28T02:19:21.946Z,0
2017-05-28T02:20:30.033Z,0
2017-05-28T02:21:38.118Z,0
2017-05-28T02:22:46.204Z,0
2017-05-28T02:23:54.293Z,0
2017-05-28T02:25:02.380Z,0
2017-05-28T02:26:10.479Z,0
2017-05-28T02:27:18.556Z,0
2017-05-28T02:28:26.642Z,0
2017-05-28T02:29:34.731Z,0
2017-05-28T02:30:42.817Z,0
2017-05-28T02:31:50.914Z,0
2017-05-28T02:32:58.991Z,0
2017-05-28T02:34:07.078Z,0
2017-05-28T02:35:15.161Z,0
2017-05-28T02:36:23.264Z,0
2017-05-28T02:37:31.340Z,0
2017-05-28T02:38:39.429Z,0
2017-05-28T02:39:47.513Z,0
2017-05-28T02:40:55.599Z,0
2017-05-28T02:42:03.685Z,0
2017-05-28T02:43:11.770Z,0
2017-05-28T02:44:19.857Z,0
2017-05-28T02:45:27.947Z,0
2017-05-28T02:46:36.029Z,0
2017-05-28T02:47:44.115Z,0
2017-05-28T02:48:52.201Z,0
2017-05-28T02:50:00.721Z,0
2017-05-28T02:51:08.374Z,0
2017-05-28T02:52:16.460Z,0
2017-05-28T02:53:24.547Z,0
2017-05-28T02:54:32.694Z,0
2017-05-28T02:55:40.724Z,0
2017-05-28T02:56:48.801Z,0
2017-05-28T02:57:56.897Z,0
2017-05-28T02:59:04.984Z,0
2017-05-28T03:00:13.060Z,0
2017-05-28T03:01:21.148Z,0
2017-05-28T03:02:29.235Z,0
2017-05-28T03:03:37.321Z,0
2017-05-28T03:04:45.404Z,0
2017-05-28T03:05:53.492Z,0
2017-05-28T03:07:01.577Z,0
2017-05-28T03:08:09.664Z,0
2017-05-28T03:09:17.761Z,0
2017-05-28T03:10:25.902Z,0
2017-05-28T03:11:33.959Z,0
2017-05-28T03:12:42.009Z,0
2017-05-28T03:13:50.093Z,0
2017-05-28T03:14:58.239Z,0
2017-05-28T03:16:06.268Z,0
2017-05-28T03:17:14.358Z,0
2017-05-28T03:18:22.444Z,0
2017-05-28T03:19:30.530Z,0
2017-05-28T03:20:38.615Z,0
2017-05-28T03:21:46.709Z,0
2017-05-28T03:22:54.793Z,0
2017-05-28T03:24:02.871Z,0
2017-05-28T03:25:10.955Z,0
2017-05-28T03:26:19.046Z,0
2017-05-28T03:27:27.130Z,0
2017-05-28T03:28:35.263Z,0
2017-05-28T03:29:43.308Z,0
2017-05-28T03:30:51.392Z,4
2017-05-28T03:31:59.480Z,4
2017-05-28T03:33:07.565Z,0
2017-05-28T03:34:15.649Z,0
2017-05-28T03:35:23.750Z,0
2017-05-28T03:36:31.836Z,0
2017-05-28T03:37:39.916Z,0
2017-05-28T03:38:48.002Z,0
2017-05-28T03:39:56.085Z,0
2017-05-28T03:41:04.174Z,4
2017-05-28T03:42:12.307Z,4
2017-05-28T03:43:20.346Z,4
2017-05-28T03:44:28.428Z,0
2017-05-28T03:45:36.516Z,0
2017-05-28T03:46:44.600Z,0
2017-05-28T03:47:52.806Z,0
2017-05-28T03:49:00.774Z,0
2017-05-28T03:50:08.862Z,0
2017-05-28T03:51:16.945Z,0
2017-05-28T03:52:25.030Z,4
2017-05-28T03:53:33.117Z,4
2017-05-28T03:54:41.203Z,4
2017-05-28T03:55:49.289Z,4
2017-05-28T03:56:57.431Z,4
2017-05-28T03:58:05.458Z,4
2017-05-28T03:59:13.544Z,4
2017-05-28T04:00:21.630Z,4
2017-05-28T04:01:29.721Z,4
2017-05-28T04:02:37.807Z,4
2017-05-28T04:03:45.891Z,4
2017-05-28T04:04:53.980Z,0
2017-05-28T04:06:02.063Z,0
2017-05-28T04:07:10.237Z,0
2017-05-28T04:08:18.233Z,4
2017-05-28T04:09:26.319Z,4
2017-05-28T04:10:34.403Z,4
2017-05-28T04:11:42.496Z,4
2017-05-28T04:12:50.580Z,4
2017-05-28T04:13:58.665Z,4
2017-05-28T04:15:06.771Z,4
2017-05-28T04:16:14.834Z,4
2017-05-28T04:17:22.921Z,8
2017-05-28T04:18:31.006Z,4
2017-05-28T04:19:39.090Z,4
2017-05-28T04:20:47.176Z,4
2017-05-28T04:21:55.277Z,4
2017-05-28T04:23:03.355Z,4
2017-05-28T04:24:11.439Z,8
2017-05-28T04:25:19.525Z,4
2017-05-28T04:26:27.618Z,4
2017-05-28T04:27:35.703Z,4
2017-05-28T04:28:43.779Z,4
2017-05-28T04:29:51.866Z,8
2017-05-28T04:30:59.953Z,8
2017-05-28T04:32:08.038Z,8
2017-05-28T04:33:16.132Z,4
2017-05-28T04:34:24.214Z,4
2017-05-28T04:35:32.296Z,4
2017-05-28T04:36:40.380Z,8
2017-05-28T04:37:48.465Z,8
2017-05-28T04:38:56.550Z,8
2017-05-28T04:40:04.638Z,8
2017-05-28T04:41:12.740Z,4
2017-05-28T04:42:20.902Z,4
2017-05-28T04:43:28.897Z,8
2017-05-28T04:44:36.982Z,8
2017-05-28T04:45:45.068Z,8
2017-05-28T04:46:53.153Z,8
2017-05-28T04:48:01.238Z,8
2017-05-28T04:49:09.333Z,8
2017-05-28T04:50:17.415Z,8
2017-05-28T04:51:25.503Z,8
2017-05-28T04:52:33.588Z,8
2017-05-28T04:53:41.675Z,8
2017-05-28T04:54:49.763Z,8
2017-05-28T04:55:57.853Z,8
2017-05-28T04:57:05.937Z,8
2017-05-28T04:58:14.506Z,8
2017-05-28T04:59:22.106Z,12
2017-05-28T05:00:30.192Z,12
2017-05-28T05:01:38.286Z,8
2017-05-28T05:02:46.432Z,12
2017-05-28T05:03:54.465Z,12
2017-05-28T05:05:02.541Z,12
2017-05-28T05:06:10.633Z,12
2017-05-28T05:07:18.712Z,12
2017-05-28T05:08:26.801Z,12
2017-05-28T05:09:34.885Z,12
2017-05-28T05:10:43.069Z,12
2017-05-28T05:11:51.059Z,12
2017-05-28T05:12:59.232Z,12
2017-05-28T05:14:07.232Z,12
2017-05-28T05:15:15.855Z,12
2017-05-28T05:16:24.016Z,8
2017-05-28T05:17:31.827Z,12
2017-05-28T05:18:39.680Z,12
2017-05-28T05:19:48.235Z,8
2017-05-28T05:20:55.847Z,8
2017-05-28T05:22:03.834Z,12
2017-05-28T05:23:11.944Z,12
2017-05-28T05:24:20.006Z,12
2017-05-28T05:25:28.191Z,16
2017-05-28T05:26:36.176Z,12
2017-05-28T05:27:44.264Z,12
2017-05-28T05:28:52.354Z,12
2017-05-28T05:30:00.438Z,12
2017-05-28T05:31:08.523Z,12
2017-05-28T05:32:16.610Z,12
2017-05-28T05:33:24.701Z,12
2017-05-28T05:34:33.110Z,12
2017-05-28T05:35:40.884Z,12
2017-05-28T05:36:49.210Z,12
2017-05-28T05:37:57.047Z,12
2017-05-28T05:39:05.167Z,12
2017-05-28T05:40:13.222Z,12
2017-05-28T05:41:21.305Z,16
2017-05-28T05:42:29.397Z,12
2017-05-28T05:43:37.755Z,12
2017-05-28T05:44:45.674Z,12
2017-05-28T05:45:53.663Z,16
2017-05-28T05:47:02.268Z,16
2017-05-28T05:48:10.018Z,12
2017-05-28T05:49:17.967Z,12
2017-05-28T05:50:26.123Z,16
2017-05-28T05:51:34.087Z,16
2017-05-28T05:52:42.458Z,12
2017-05-28T05:53:50.269Z,12
2017-05-28T05:54:58.444Z,16
2017-05-28T05:56:07.144Z,16
2017-05-28T05:57:14.522Z,16
2017-05-28T05:58:23.203Z,12
2017-05-28T05:59:31.078Z,16
2017-05-28T06:00:38.992Z,16
2017-05-28T06:01:46.966Z,16
2017-05-28T06:02:54.963Z,12
2017-05-28T06:04:03.097Z,12
2017-05-28T06:05:11.138Z,16
2017-05-28T06:06:19.315Z,16
2017-05-28T06:07:27.305Z,16
2017-05-28T06:08:35.389Z,16
2017-05-28T06:09:43.475Z,12
2017-05-28T06:10:51.817Z,16
2017-05-28T06:11:59.788Z,16
2017-05-28T06:13:08.802Z,16
2017-05-28T06:14:16.080Z,16
2017-05-28T06:15:24.493Z,16
2017-05-28T06:16:31.994Z,16
2017-05-28T06:17:40.079Z,16
2017-05-28T06:18:48.165Z,16
2017-05-28T06:19:56.250Z,20
2017-05-28T06:21:04.339Z,20
2017-05-28T06:22:12.421Z,20
2017-05-28T06:23:20.579Z,16
2017-05-28T06:24:28.596Z,16
2017-05-28T06:25:36.712Z,16
2017-05-28T06:26:45.298Z,16
2017-05-28T06:27:52.854Z,20
2017-05-28T06:29:00.944Z,16
2017-05-28T06:30:09.101Z,20
2017-05-28T06:31:17.134Z,20
2017-05-28T06:32:25.201Z,20
2017-05-28T06:33:33.287Z,16
2017-05-28T06:34:41.373Z,20
2017-05-28T06:35:49.516Z,16
2017-05-28T06:36:57.871Z,20
2017-05-28T06:38:05.631Z,20
2017-05-28T06:39:13.717Z,20
2017-05-28T06:40:21.896Z,20
2017-05-28T06:40:21.913Z,20
2017-05-28T06:41:29.900Z,24
2017-05-28T06:42:37.986Z,24
2017-05-28T06:43:46.062Z,28
2017-05-28T06:44:54.150Z,32
2017-05-28T06:46:02.237Z,32
2017-05-28T06:47:10.321Z,36
2017-05-28T06:48:18.405Z,40
2017-05-28T06:49:27.177Z,44
2017-05-28T06:50:34.648Z,44
2017-05-28T06:51:42.669Z,44
2017-05-28T06:52:50.758Z,44
2017-05-28T06:53:58.841Z,44
2017-05-28T06:55:06.927Z,44
2017-05-28T06:56:15.021Z,48
2017-05-28T06:57:23.202Z,44
2017-05-28T06:58:31.553Z,44
2017-05-28T06:59:39.391Z,44
2017-05-28T07:00:47.368Z,44
2017-05-28T07:01:55.913Z,44
2017-05-28T07:03:03.640Z,40
2017-05-28T07:04:11.617Z,44
2017-05-28T07:05:19.704Z,44
2017-05-28T07:06:27.815Z,44
2017-05-28T07:07:35.880Z,44
2017-05-28T07:08:43.967Z,44
2017-05-28T07:09:52.079Z,44
2017-05-28T07:11:00.155Z,44
2017-05-28T07:12:08.226Z,48
2017-05-28T07:13:16.314Z,44
2017-05-28T07:14:24.401Z,44
2017-05-28T07:15:32.486Z,48
2017-05-28T07:16:40.579Z,44
2017-05-28T07:17:48.660Z,48
2017-05-28T07:18:56.744Z,48
2017-05-28T07:20:04.840Z,48
2017-05-28T07:21:12.934Z,48
2017-05-28T07:22:21.014Z,48
2017-05-28T07:23:29.098Z,48
2017-05-28T07:24:37.193Z,48
2017-05-28T07:25:45.271Z,48
2017-05-28T07:26:53.360Z,44
2017-05-28T07:28:01.448Z,48
2017-05-28T07:29:09.533Z,48
2017-05-28T07:30:17.620Z,48
2017-05-28T07:31:25.711Z,48
2017-05-28T07:32:33.792Z,48
2017-05-28T07:33:41.880Z,52
2017-05-28T07:34:49.964Z,52
2017-05-28T07:35:58.059Z,48
2017-05-28T07:37:06.155Z,48
2017-05-28T07:38:14.234Z,52
2017-05-28T07:39:22.318Z,52
2017-05-28T07:40:30.406Z,52
2017-05-28T07:41:38.502Z,52
2017-05-28T07:42:46.577Z,52
2017-05-28T07:43:54.690Z,52
2017-05-28T07:45:02.822Z,52
2017-05-28T07:46:10.840Z,52
2017-05-28T07:47:18.926Z,52
2017-05-28T07:48:27.014Z,52
2017-05-28T07:49:35.104Z,52
2017-05-28T07:50:43.190Z,52
2017-05-28T07:51:51.276Z,52
2017-05-28T07:52:59.365Z,52
2017-05-28T07:54:07.448Z,52
2017-05-28T07:55:15.538Z,52
2017-05-28T07:56:23.624Z,52
2017-05-28T07:57:31.714Z,52
2017-05-28T07:58:39.811Z,52
2017-05-28T07:59:47.889Z,52
2017-05-28T08:00:55.980Z,48
2017-05-28T08:02:04.069Z,48
2017-05-28T08:03:12.161Z,48
2017-05-28T08:04:20.243Z,48
2017-05-28T08:05:28.329Z,48
2017-05-28T08:06:36.416Z,48
2017-05-28T08:07:44.509Z,48
2017-05-28T08:08:52.592Z,48
2017-05-28T08:10:01.102Z,48
2017-05-28T08:11:08.764Z,48
2017-05-28T08:12:16.852Z,48
2017-05-28T08:13:24.943Z,48
2017-05-28T08:14:33.031Z,48
2017-05-28T08:15:41.114Z,48
2017-05-28T08:16:49.206Z,48
2017-05-28T08:17:57.292Z,48
2017-05-28T08:19:05.435Z,44
2017-05-28T08:20:13.552Z,48
2017-05-28T08:21:21.548Z,48
2017-05-28T08:22:29.739Z,48
2017-05-28T08:23:37.809Z,44
2017-05-28T08:24:45.934Z,44
2017-05-28T08:25:54.004Z,44
2017-05-28T08:27:02.076Z,44
2017-05-28T08:28:10.153Z,44
2017-05-28T08:29:18.262Z,44
2017-05-28T08:30:26.315Z,44
2017-05-28T08:31:34.333Z,40
2017-05-28T08:32:42.423Z,44
2017-05-28T08:33:50.604Z,40
2017-05-28T08:34:58.685Z,44
2017-05-28T08:36:06.797Z,40
2017-05-28T08:37:14.843Z,40
2017-05-28T08:38:22.966Z,40
2017-05-28T08:39:30.949Z,44
2017-05-28T08:40:39.034Z,40
2017-05-28T08:41:47.122Z,40
2017-05-28T08:42:55.338Z,40
2017-05-28T08:44:03.297Z,40
2017-05-28T08:45:11.382Z,36
2017-05-28T08:46:19.479Z,40
2017-05-28T08:47:27.559Z,40
2017-05-28T08:48:35.672Z,36
2017-05-28T08:49:43.743Z,36
2017-05-28T08:50:51.820Z,40
2017-05-28T08:51:59.907Z,36
2017-05-28T08:53:07.999Z,36
2017-05-28T08:54:16.082Z,36
2017-05-28T08:55:24.172Z,36
2017-05-28T08:56:32.256Z,40
2017-05-28T08:57:40.348Z,40
2017-05-28T08:58:48.435Z,40
2017-05-28T08:59:56.524Z,40
2017-05-28T09:01:04.609Z,36
2017-05-28T09:02:12.700Z,36
2017-05-28T09:03:20.808Z,36
2017-05-28T09:04:28.900Z,40
2017-05-28T09:05:36.958Z,40
2017-05-28T09:06:45.057Z,36
2017-05-28T09:07:53.174Z,40
2017-05-28T09:09:01.224Z,40
2017-05-28T09:10:09.309Z,40
2017-05-28T09:11:17.395Z,40
2017-05-28T09:12:25.484Z,36
2017-05-28T09:13:33.570Z,40
2017-05-28T09:14:41.661Z,40
2017-05-28T09:15:49.757Z,36
2017-05-28T09:16:57.836Z,36
2017-05-28T09:18:05.923Z,40
2017-05-28T09:19:14.010Z,36
2017-05-28T09:20:22.096Z,36
2017-05-28T09:21:30.182Z,36
2017-05-28T09:22:38.275Z,36
2017-05-28T09:23:46.362Z,32
2017-05-28T09:24:54.447Z,32
2017-05-28T09:26:02.536Z,36
2017-05-28T09:27:10.622Z,36
2017-05-28T09:28:18.720Z,36
2017-05-28T09:29:26.801Z,36
2017-05-28T09:30:34.917Z,36
2017-05-28T09:31:42.972Z,36
2017-05-28T09:32:51.059Z,40
2017-05-28T09:33:59.150Z,40
2017-05-28T09:35:07.240Z,40
2017-05-28T09:36:15.328Z,36
2017-05-28T09:37:23.416Z,36
2017-05-28T09:38:31.504Z,36
2017-05-28T09:39:39.593Z,36
2017-05-28T09:40:47.677Z,36
2017-05-28T09:41:55.776Z,40
2017-05-28T09:43:03.854Z,36
2017-05-28T09:44:11.952Z,36
2017-05-28T09:45:20.053Z,36
2017-05-28T09:46:28.118Z,40
2017-05-28T09:47:36.206Z,40
2017-05-28T09:48:44.291Z,40
2017-05-28T09:49:52.380Z,36
2017-05-28T09:51:00.472Z,36
2017-05-28T09:52:08.590Z,40
2017-05-28T09:53:16.640Z,36
2017-05-28T09:54:24.736Z,40
2017-05-28T09:55:32.827Z,40
2017-05-28T09:56:40.913Z,40
2017-05-28T09:57:48.995Z,40
2017-05-28T09:58:57.082Z,36
2017-05-28T10:00:05.169Z,40
2017-05-28T10:01:13.260Z,40
2017-05-28T10:02:21.344Z,40
2017-05-28T10:03:29.435Z,40
2017-05-28T10:04:37.521Z,40
2017-05-28T10:05:45.610Z,40
2017-05-28T10:06:53.719Z,40
2017-05-28T10:08:01.787Z,40
2017-05-28T10:09:09.933Z,40
2017-05-28T10:10:17.961Z,40
2017-05-28T10:11:26.072Z,40
2017-05-28T10:12:34.137Z,40
2017-05-28T10:13:42.224Z,40
2017-05-28T10:14:50.312Z,40
2017-05-28T10:15:58.402Z,40
2017-05-28T10:17:06.489Z,44
2017-05-28T10:18:14.577Z,40
2017-05-28T10:19:22.664Z,40
2017-05-28T10:20:30.752Z,40
2017-05-28T10:21:38.842Z,40
2017-05-28T10:22:46.937Z,40
2017-05-28T10:23:55.018Z,40
2017-05-28T10:25:03.105Z,40
2017-05-28T10:26:11.245Z,40
2017-05-28T10:27:19.288Z,40
2017-05-28T10:28:27.376Z,40
2017-05-28T10:29:35.464Z,40
2017-05-28T10:30:43.558Z,40
2017-05-28T10:31:51.646Z,36
2017-05-28T10:32:59.740Z,40
2017-05-28T10:34:07.830Z,36
2017-05-28T10:35:15.933Z,40
2017-05-28T10:36:23.997Z,40
2017-05-28T10:37:32.092Z,40
2017-05-28T10:38:40.179Z,40
2017-05-28T10:39:48.269Z,40
2017-05-28T10:40:56.364Z,40
2017-05-28T10:42:04.443Z,40
2017-05-28T10:43:12.613Z,36
2017-05-28T10:44:20.619Z,40
2017-05-28T10:45:28.709Z,40
2017-05-28T10:46:36.820Z,40
2017-05-28T10:47:44.882Z,44
2017-05-28T10:48:52.971Z,40
2017-05-28T10:50:01.059Z,36
2017-05-28T10:51:09.149Z,40
2017-05-28T10:52:17.237Z,40
2017-05-28T10:53:25.331Z,40
2017-05-28T10:54:33.412Z,40
2017-05-28T10:55:41.502Z,36
2017-05-28T10:56:49.595Z,40
2017-05-28T10:57:57.679Z,40
2017-05-28T10:59:05.770Z,40
2017-05-28T11:00:13.853Z,40
2017-05-28T11:01:21.942Z,40
2017-05-28T11:02:30.037Z,40
2017-05-28T11:03:38.120Z,40
2017-05-28T11:04:46.308Z,40
2017-05-28T11:05:54.294Z,40
2017-05-28T11:07:02.386Z,40
2017-05-28T11:08:10.472Z,44
2017-05-28T11:09:18.560Z,40
2017-05-28T11:10:26.649Z,40
2017-05-28T11:11:34.739Z,40
2017-05-28T11:12:42.839Z,40
2017-05-28T11:13:51.020Z,40
2017-05-28T11:14:59.012Z,40
2017-05-28T11:16:07.098Z,36
2017-05-28T11:17:15.199Z,36
2017-05-28T11:18:23.285Z,36
2017-05-28T11:19:31.375Z,36
2017-05-28T11:20:39.461Z,36
2017-05-28T11:21:47.549Z,36
2017-05-28T11:22:55.639Z,40
2017-05-28T11:24:03.726Z,40
2017-05-28T11:25:11.814Z,36
2017-05-28T11:26:19.902Z,40
2017-05-28T11:27:27.994Z,36
2017-05-28T11:28:36.079Z,40
2017-05-28T11:29:44.171Z,36
2017-05-28T11:30:52.263Z,40
2017-05-28T11:32:00.345Z,36
2017-05-28T11:33:08.435Z,40
2017-05-28T11:34:16.543Z,36
2017-05-28T11:35:24.611Z,40
2017-05-28T11:36:32.701Z,40
2017-05-28T11:37:40.791Z,36
2017-05-28T11:38:48.882Z,36
2017-05-28T11:39:56.966Z,40
2017-05-28T11:41:05.054Z,36
2017-05-28T11:42:13.177Z,36
2017-05-28T11:43:21.244Z,40
2017-05-28T11:44:29.324Z,36
2017-05-28T11:45:37.412Z,40
2017-05-28T11:46:45.503Z,36
2017-05-28T11:47:53.591Z,36
2017-05-28T11:49:01.678Z,32
2017-05-28T11:50:09.764Z,36
2017-05-28T11:51:17.854Z,36
2017-05-28T11:52:25.958Z,36
2017-05-28T11:53:34.033Z,36
2017-05-28T11:54:42.120Z,36
2017-05-28T11:55:50.254Z,36
2017-05-28T11:56:58.296Z,36
2017-05-28T11:58:06.385Z,36
2017-05-28T11:59:14.474Z,32
2017-05-28T12:00:22.600Z,32
2017-05-28T12:01:30.661Z,32
2017-05-28T12:02:38.742Z,36
2017-05-28T12:03:46.834Z,32
2017-05-28T12:04:54.922Z,32
2017-05-28T12:06:03.008Z,32
2017-05-28T12:07:11.098Z,32
2017-05-28T12:08:19.186Z,32
2017-05-28T12:09:27.273Z,32
2017-05-28T12:10:35.362Z,32
2017-05-28T12:11:43.451Z,32
2017-05-28T12:12:51.539Z,32
2017-05-28T12:13:59.629Z,32
2017-05-28T12:15:07.715Z,32
2017-05-28T12:16:15.819Z,32
2017-05-28T12:17:23.900Z,32
2017-05-28T12:18:31.989Z,28
2017-05-28T12:19:40.079Z,32
2017-05-28T12:20:48.165Z,32
2017-05-28T12:21:56.255Z,28
2017-05-28T12:23:04.345Z,32
2017-05-28T12:24:12.434Z,32
2017-05-28T12:25:20.522Z,32
2017-05-28T12:26:28.616Z,32
2017-05-28T12:27:36.712Z,32
2017-05-28T12:28:44.914Z,32
2017-05-28T12:29:52.883Z,32
2017-05-28T12:31:00.971Z,32
2017-05-28T12:32:09.059Z,28
2017-05-28T12:33:17.154Z,32
2017-05-28T12:34:25.238Z,28
2017-05-28T12:35:33.327Z,32
2017-05-28T12:36:41.414Z,32
2017-05-28T12:37:49.507Z,32
2017-05-28T12:38:57.591Z,32
2017-05-28T12:40:05.682Z,32
2017-05-28T12:41:13.773Z,36
2017-05-28T12:42:21.859Z,32
2017-05-28T12:43:29.951Z,32
2017-05-28T12:44:38.037Z,32
2017-05-28T12:45:46.128Z,32
2017-05-28T12:46:54.216Z,32
2017-05-28T12:48:02.302Z,32
2017-05-28T12:49:10.390Z,32
2017-05-28T12:50:18.482Z,32
2017-05-28T12:51:26.572Z,32
2017-05-28T12:52:34.661Z,32
2017-05-28T12:53:42.750Z,32
2017-05-28T12:54:50.837Z,28
2017-05-28T12:55:58.925Z,28
2017-05-28T12:57:07.015Z,24
2017-05-28T12:58:15.105Z,32
2017-05-28T12:59:23.193Z,32
2017-05-28T13:00:31.288Z,32
2017-05-28T13:01:39.379Z,32
2017-05-28T13:02:47.458Z,28
2017-05-28T13:03:55.549Z,32
2017-05-28T13:05:03.637Z,28
2017-05-28T13:06:11.752Z,32
2017-05-28T13:07:19.816Z,32
2017-05-28T13:08:27.906Z,28
2017-05-28T13:09:36.019Z,28
2017-05-28T13:10:44.083Z,28
2017-05-28T13:11:52.174Z,28
2017-05-28T13:13:00.262Z,32
2017-05-28T13:14:08.350Z,28
2017-05-28T13:15:16.449Z,32
2017-05-28T13:16:24.541Z,28
2017-05-28T13:17:32.635Z,32
2017-05-28T13:18:40.736Z,32
2017-05-28T13:19:48.814Z,32
2017-05-28T13:20:56.903Z,32
2017-05-28T13:22:04.990Z,32
2017-05-28T13:23:13.081Z,32
2017-05-28T13:24:21.167Z,36
2017-05-28T13:25:29.256Z,32
2017-05-28T13:26:37.346Z,32
2017-05-28T13:27:45.437Z,32
2017-05-28T13:28:53.527Z,32
2017-05-28T13:30:01.615Z,32
2017-05-28T13:31:09.712Z,32
2017-05-28T13:32:17.850Z,32
2017-05-28T13:33:25.881Z,32
2017-05-28T13:34:33.969Z,32
2017-05-28T13:35:42.058Z,32
2017-05-28T13:36:50.148Z,32
2017-05-28T13:37:58.239Z,28
2017-05-28T13:39:06.329Z,32
2017-05-28T13:40:14.420Z,32
2017-05-28T13:41:22.508Z,32
2017-05-28T13:42:30.608Z,32
2017-05-28T13:43:38.688Z,32
2017-05-28T13:44:46.774Z,32
2017-05-28T13:45:54.863Z,32
2017-05-28T13:47:02.986Z,28
2017-05-28T13:48:11.049Z,28
2017-05-28T13:49:19.167Z,28
2017-05-28T13:50:27.225Z,24
2017-05-28T13:51:35.314Z,24
2017-05-28T13:52:43.404Z,24
2017-05-28T13:53:51.493Z,24
2017-05-28T13:54:59.584Z,20
2017-05-28T13:56:07.676Z,24
2017-05-28T13:57:15.764Z,20
2017-05-28T13:58:23.858Z,24
2017-05-28T13:59:31.940Z,24
2017-05-28T14:00:40.029Z,20
2017-05-28T14:01:48.144Z,20
2017-05-28T14:02:56.207Z,24
2017-05-28T14:04:04.298Z,20
2017-05-28T14:05:12.385Z,20
2017-05-28T14:06:20.477Z,20
2017-05-28T14:07:28.566Z,20
2017-05-28T14:08:36.653Z,16
2017-05-28T14:09:44.750Z,20
2017-05-28T14:10:52.833Z,20
2017-05-28T14:12:00.950Z,20
2017-05-28T14:13:09.009Z,20
2017-05-28T14:14:17.119Z,20
2017-05-28T14:15:25.196Z,20
2017-05-28T14:16:33.283Z,16
2017-05-28T14:17:41.373Z,16
2017-05-28T14:18:49.461Z,16
2017-05-28T14:19:57.722Z,20
2017-05-28T14:21:05.763Z,20
2017-05-28T14:22:13.729Z,20
2017-05-28T14:23:21.820Z,16
2017-05-28T14:24:29.987Z,20
2017-05-28T14:25:38.564Z,16
2017-05-28T14:26:46.089Z,16
2017-05-28T14:27:54.384Z,20
2017-05-28T14:29:02.569Z,20
2017-05-28T14:30:10.574Z,20
2017-05-28T14:31:18.784Z,20
2017-05-28T14:32:26.953Z,16
2017-05-28T14:33:35.033Z,16
2017-05-28T14:34:42.730Z,16
2017-05-28T14:35:50.808Z,16
2017-05-28T14:36:58.989Z,16
2017-05-28T14:38:06.978Z,16
2017-05-28T14:39:15.068Z,16
2017-05-28T14:40:23.156Z,12
2017-05-28T14:41:31.686Z,16
2017-05-28T14:42:39.336Z,12
2017-05-28T14:43:47.426Z,12
2017-05-28T14:44:55.515Z,16
2017-05-28T14:46:03.652Z,12
2017-05-28T14:47:11.691Z,12
2017-05-28T14:48:19.780Z,12
2017-05-28T14:49:27.871Z,12
2017-05-28T14:50:35.983Z,8
2017-05-28T14:51:44.051Z,12
2017-05-28T14:52:52.137Z,8
2017-05-28T14:54:00.228Z,12
2017-05-28T14:55:08.317Z,12
2017-05-28T14:56:16.404Z,8
2017-05-28T14:57:24.494Z,12
2017-05-28T14:58:32.583Z,8
2017-05-28T14:59:40.671Z,8
2017-05-28T15:00:48.762Z,12
2017-05-28T15:01:56.874Z,8
2017-05-28T15:03:04.961Z,8
2017-05-28T15:04:13.032Z,12
2017-05-28T15:05:21.119Z,8
2017-05-28T15:06:29.208Z,8
2017-05-28T15:07:37.298Z,8
2017-05-28T15:08:45.387Z,8
2017-05-28T15:09:53.477Z,8
2017-05-28T15:11:01.570Z,8
2017-05-28T15:12:09.659Z,8
2017-05-28T15:13:17.751Z,8
2017-05-28T15:14:25.863Z,8
2017-05-28T15:15:33.933Z,8
2017-05-28T15:16:42.018Z,8
2017-05-28T15:17:50.106Z,4
2017-05-28T15:18:58.192Z,8
2017-05-28T15:20:06.349Z,4
2017-05-28T15:21:14.373Z,4
2017-05-28T15:22:22.462Z,4
2017-05-28T15:23:30.576Z,4
2017-05-28T15:24:38.638Z,4
2017-05-28T15:25:46.728Z,4
2017-05-28T15:26:54.822Z,4
2017-05-28T15:28:02.912Z,4
2017-05-28T15:29:11.001Z,4
2017-05-28T15:30:19.090Z,4
2017-05-28T15:31:27.179Z,4
2017-05-28T15:32:35.267Z,4
2017-05-28T15:33:43.358Z,4
2017-05-28T15:34:51.445Z,4
2017-05-28T15:35:59.537Z,8
2017-05-28T15:37:07.625Z,8
2017-05-28T15:38:15.713Z,8
2017-05-28T15:39:23.811Z,8
2017-05-28T15:40:31.893Z,8
2017-05-28T15:41:39.982Z,8
2017-05-28T15:42:48.071Z,8
2017-05-28T15:43:56.156Z,8
2017-05-28T15:45:04.251Z,8
2017-05-28T15:46:12.338Z,8
2017-05-28T15:47:20.435Z,8
2017-05-28T15:48:28.516Z,8
2017-05-28T15:49:36.614Z,8
2017-05-28T15:50:44.703Z,8
2017-05-28T15:51:52.794Z,8
2017-05-28T15:53:00.898Z,8
2017-05-28T15:54:08.972Z,8
2017-05-28T15:55:17.059Z,8
2017-05-28T15:56:25.150Z,8
2017-05-28T15:57:33.238Z,12
2017-05-28T15:58:41.327Z,8
2017-05-28T15:59:49.416Z,8
2017-05-28T16:00:57.506Z,8
2017-05-28T16:02:05.592Z,8
2017-05-28T16:03:13.681Z,12
2017-05-28T16:04:21.797Z,8
2017-05-28T16:05:29.860Z,8
2017-05-28T16:06:37.973Z,12
2017-05-28T16:07:46.038Z,12
2017-05-28T16:08:54.127Z,8
2017-05-28T16:10:02.216Z,12
2017-05-28T16:11:10.308Z,12
2017-05-28T16:12:18.394Z,12
2017-05-28T16:13:26.487Z,12
2017-05-28T16:14:34.571Z,12
2017-05-28T16:15:42.660Z,12
2017-05-28T16:16:50.749Z,12
2017-05-28T16:17:58.838Z,12
2017-05-28T16:19:07.048Z,12
2017-05-28T16:20:15.017Z,12
2017-05-28T16:21:23.105Z,12
2017-05-28T16:22:31.190Z,16
2017-05-28T16:23:39.279Z,12